Time;durP1;ratioP1;P1;durP2;ratioP2;P2;SDS_P1;SDS_P2;PMS_P1;PMS_P2;Temp;Humidity;BMP_temperature;BMP_pressure;BME280_temperature;BME280_humidity;BME280_pressure;Samples;Min_cycle;Max_cycle;Signal;HPM_P1;HPM_P2
2023/11/05 00:02:06;;;;;;;18.80;11.10;;;;;;;4.03;89.63;97208.73;217431;1260;140000;-67
2023/11/05 00:07:09;;;;;;;17.00;12.00;;;;;;;4.10;89.71;97196.81;218363;1257;139683;-66
2023/11/05 00:12:12;;;;;;;19.00;11.90;;;;;;;4.15;89.37;97187.94;218222;1257;140529;-67
2023/11/05 00:17:17;;;;;;;24.30;12.70;;;;;;;4.20;89.53;97169.30;218159;1257;140978;-67
2023/11/05 00:22:20;;;;;;;17.40;11.20;;;;;;;4.22;89.67;97152.38;219483;1258;139987;-68
2023/11/05 00:27:25;;;;;;;18.70;9.90;;;;;;;4.25;89.88;97152.98;220116;1258;141757;-68
2023/11/05 00:32:29;;;;;;;16.90;10.60;;;;;;;4.32;89.59;97139.54;218416;1260;139200;-67
2023/11/05 00:37:32;;;;;;;18.40;11.80;;;;;;;4.40;89.58;97141.80;220185;1257;139691;-67
2023/11/05 00:42:35;;;;;;;16.30;9.70;;;;;;;4.45;89.55;97132.64;218916;1257;140106;-67
2023/11/05 00:47:39;;;;;;;19.20;11.60;;;;;;;4.49;89.43;97122.00;217344;1257;139723;-67
2023/11/05 00:52:42;;;;;;;16.80;11.20;;;;;;;4.49;89.54;97112.66;218232;1257;139739;-66
2023/11/05 00:57:45;;;;;;;19.60;12.70;;;;;;;4.50;89.58;97114.83;217457;1258;139753;-66
2023/11/05 01:02:47;;;;;;;16.70;11.60;;;;;;;4.53;89.55;97109.77;217499;1258;141560;-66
2023/11/05 01:07:50;;;;;;;14.50;10.60;;;;;;;4.54;89.51;97094.38;218912;1257;140362;-67
2023/11/05 01:12:53;;;;;;;14.60;8.50;;;;;;;4.55;89.55;97091.84;218695;1257;140026;-67
2023/11/05 01:17:56;;;;;;;15.90;10.20;;;;;;;4.59;89.55;97092.26;217749;1257;463134;-67
2023/11/05 01:22:59;;;;;;;15.60;10.00;;;;;;;4.61;89.51;97092.30;218353;1257;139376;-66
2023/11/05 01:28:03;;;;;;;19.00;11.40;;;;;;;4.63;89.64;97087.73;218036;1259;140700;-67
2023/11/05 01:33:06;;;;;;;15.30;9.00;;;;;;;4.65;89.62;97072.21;217698;1259;140037;-68
2023/11/05 01:38:10;;;;;;;20.30;12.10;;;;;;;4.68;89.65;97064.84;217893;1257;139352;-67
2023/11/05 01:43:13;;;;;;;18.60;11.30;;;;;;;4.67;89.29;97058.14;217879;1257;139856;-67
2023/11/05 01:48:16;;;;;;;18.30;10.20;;;;;;;4.68;89.72;97055.34;217975;1257;140247;-66
2023/11/05 01:53:19;;;;;;;14.40;10.00;;;;;;;4.71;89.63;97054.86;218761;1256;142012;-67
2023/11/05 01:58:23;;;;;;;15.70;9.90;;;;;;;4.74;89.73;97038.77;217932;1259;139773;-66
2023/11/05 02:03:30;;;;;;;13.40;9.10;;;;;;;4.77;89.87;97027.27;217766;1258;139562;-66
2023/11/05 02:08:33;;;;;;;14.10;7.80;;;;;;;4.81;89.69;97016.98;219732;1257;139977;-67
2023/11/05 02:13:47;;;;;;;16.70;10.00;;;;;;;4.88;90.04;97034.50;218958;1257;139792;-66
2023/11/05 02:18:50;;;;;;;12.00;9.20;;;;;;;4.96;89.88;97052.83;219328;1257;139792;-68
2023/11/05 02:23:53;;;;;;;13.30;9.50;;;;;;;5.03;89.88;97050.14;218137;1255;140622;-65
2023/11/05 02:28:59;;;;;;;15.00;10.10;;;;;;;5.09;89.54;97060.07;219380;1258;139708;-70
2023/11/05 02:34:03;;;;;;;14.30;8.20;;;;;;;5.16;89.54;97068.63;220159;1258;140865;-71
2023/11/05 02:39:07;;;;;;;9.40;6.40;;;;;;;5.25;89.54;97074.95;219503;1258;141955;-67
2023/11/05 02:44:11;;;;;;;14.10;8.20;;;;;;;5.34;89.35;97072.94;218791;1257;140362;-67
2023/11/05 02:49:14;;;;;;;10.70;7.30;;;;;;;5.41;89.34;97077.79;218126;1257;140553;-66
2023/11/05 02:54:17;;;;;;;15.20;7.70;;;;;;;5.47;89.24;97082.18;219428;1257;139493;-65
2023/11/05 02:59:25;;;;;;;10.00;7.30;;;;;;;5.55;89.17;97072.48;219482;1257;139843;-66
2023/11/05 03:04:29;;;;;;;12.20;5.90;;;;;;;5.63;89.28;97050.27;217856;1257;139635;-65
2023/11/05 03:09:32;;;;;;;11.60;7.00;;;;;;;5.71;89.06;97044.44;218780;1256;139731;-66
2023/11/05 03:14:36;;;;;;;11.90;6.90;;;;;;;5.78;88.85;97051.45;218204;1259;140841;-65
2023/11/05 03:19:39;;;;;;;11.50;6.10;;;;;;;5.85;88.52;97034.50;218287;1258;139292;-66
2023/11/05 03:24:45;;;;;;;7.60;4.80;;;;;;;5.89;88.63;97017.53;218496;1256;139779;-65
2023/11/05 03:29:48;;;;;;;8.70;6.50;;;;;;;5.92;88.31;96998.70;217761;1257;139126;-65
2023/11/05 03:34:54;;;;;;;13.10;6.50;;;;;;;5.96;88.50;97000.13;217995;1257;139445;-65
2023/11/05 03:39:58;;;;;;;6.40;4.70;;;;;;;6.01;88.34;96983.18;217680;1257;140197;-65
2023/11/05 03:45:02;;;;;;;9.80;4.60;;;;;;;6.05;88.50;96974.64;218586;1257;139595;-66
2023/11/05 03:50:04;;;;;;;9.70;5.90;;;;;;;6.11;88.17;96974.75;217768;1257;139520;-66
2023/11/05 03:55:07;;;;;;;7.90;5.40;;;;;;;6.16;88.09;96984.09;218330;1257;139863;-66
2023/11/05 04:00:11;;;;;;;10.10;5.50;;;;;;;6.20;87.95;96968.67;218231;1255;139562;-66
2023/11/05 04:05:15;;;;;;;9.00;5.90;;;;;;;6.22;87.94;96948.30;217897;1257;140356;-66
2023/11/05 04:10:19;;;;;;;9.40;5.20;;;;;;;6.21;87.65;96941.01;218720;1259;140456;-66
2023/11/05 04:15:22;;;;;;;11.00;6.20;;;;;;;6.20;87.53;96935.35;219738;1257;140248;-66
2023/11/05 04:20:26;;;;;;;14.90;6.00;;;;;;;6.20;87.52;96942.17;219164;1256;140483;-68
2023/11/05 04:25:28;;;;;;;10.40;6.30;;;;;;;6.21;87.08;96960.79;218568;1257;139702;-68
2023/11/05 04:30:32;;;;;;;11.20;6.80;;;;;;;6.22;87.06;96956.71;220389;1257;140352;-69
2023/11/05 04:35:36;;;;;;;10.20;5.30;;;;;;;6.24;87.03;96957.92;219796;1259;140673;-68
2023/11/05 04:40:40;;;;;;;9.50;6.40;;;;;;;6.25;87.47;96968.13;219352;1261;140038;-68
2023/11/05 04:45:44;;;;;;;11.40;5.80;;;;;;;6.24;86.89;96972.94;218418;1260;140797;-65
2023/11/05 04:50:47;;;;;;;11.60;7.70;;;;;;;6.23;86.72;96968.92;217804;1257;140058;-65
2023/11/05 04:55:50;;;;;;;10.90;7.30;;;;;;;6.21;86.55;96962.95;218935;1258;141332;-68
2023/11/05 05:00:54;;;;;;;10.10;5.80;;;;;;;6.20;86.70;96961.85;219137;1257;140298;-68
2023/11/05 05:05:58;;;;;;;12.70;6.70;;;;;;;6.22;86.88;96972.90;217661;1259;139567;-67
2023/11/05 05:11:01;;;;;;;9.80;5.40;;;;;;;6.24;86.81;96977.33;218207;1256;141453;-67
2023/11/05 05:16:08;;;;;;;12.00;6.00;;;;;;;6.25;86.97;96974.11;217543;1260;140216;-67
2023/11/05 05:21:13;;;;;;;13.00;6.30;;;;;;;6.26;87.07;96975.95;217596;1257;139620;-66
2023/11/05 05:26:17;;;;;;;13.00;7.70;;;;;;;6.28;86.76;96971.60;217587;1257;139493;-67
2023/11/05 05:31:23;;;;;;;10.70;6.70;;;;;;;6.30;87.17;96964.92;218476;1260;208118;-67
2023/11/05 05:36:26;;;;;;;10.60;7.30;;;;;;;6.32;86.92;96958.67;217990;1259;140086;-67
2023/11/05 05:41:29;;;;;;;11.20;5.00;;;;;;;6.37;87.47;96963.87;218475;1260;139446;-67
2023/11/05 05:46:32;;;;;;;13.00;6.40;;;;;;;6.39;87.61;96961.74;218258;1259;141071;-68
2023/11/05 05:51:35;;;;;;;7.60;5.90;;;;;;;6.41;87.74;96952.56;218372;1259;139390;-67
2023/11/05 05:56:38;;;;;;;15.50;6.80;;;;;;;6.44;87.96;96941.95;218362;1260;139691;-66
2023/11/05 06:01:41;;;;;;;12.10;6.90;;;;;;;6.47;87.88;96926.74;218049;1257;139266;-66
2023/11/05 06:06:46;;;;;;;15.70;7.10;;;;;;;6.52;88.09;96924.44;219110;1259;139613;-65
2023/11/05 06:11:49;;;;;;;8.40;6.10;;;;;;;6.56;88.10;96925.77;218409;1257;141109;-65
2023/11/05 06:16:53;;;;;;;11.10;6.10;;;;;;;6.61;88.17;96928.61;219997;1257;141658;-66
2023/11/05 06:21:55;;;;;;;8.70;5.20;;;;;;;6.68;88.52;96933.21;220357;1259;140508;-66
2023/11/05 06:26:58;;;;;;;6.00;5.40;;;;;;;6.74;88.27;96931.66;220318;1260;140377;-66
2023/11/05 06:32:01;;;;;;;5.70;5.00;;;;;;;6.82;88.11;96924.08;220305;1257;140441;-67
2023/11/05 06:37:05;;;;;;;11.60;5.70;;;;;;;6.90;87.81;96911.34;217862;1262;140036;-66
2023/11/05 06:42:09;;;;;;;12.50;5.70;;;;;;;6.96;88.23;96906.69;220539;1256;139516;-67
2023/11/05 06:47:14;;;;;;;5.00;4.40;;;;;;;7.05;88.50;96914.36;218328;1258;151529;-68
2023/11/05 06:52:18;;;;;;;8.00;5.10;;;;;;;7.10;88.37;96905.10;217740;1261;139582;-67
2023/11/05 06:57:23;;;;;;;9.00;4.30;;;;;;;7.15;88.54;96902.73;218646;1260;142394;-67
2023/11/05 07:02:27;;;;;;;8.10;4.90;;;;;;;7.19;88.56;96894.69;217986;1259;139450;-66
2023/11/05 07:07:32;;;;;;;6.60;4.80;;;;;;;7.27;88.39;96893.64;217785;1258;139371;-66
2023/11/05 07:12:41;;;;;;;9.90;4.20;;;;;;;7.38;88.76;96889.73;218231;1261;139741;-66
2023/11/05 07:17:46;;;;;;;11.10;5.00;;;;;;;7.47;88.61;96889.36;217897;1257;150810;-65
2023/11/05 07:22:50;;;;;;;6.90;4.60;;;;;;;7.56;88.33;96894.40;218454;1257;141289;-66
2023/11/05 07:27:52;;;;;;;4.20;3.80;;;;;;;7.65;88.66;96890.83;217771;1256;139780;-67
2023/11/05 07:32:56;;;;;;;8.60;5.00;;;;;;;7.70;88.41;96872.30;218549;1259;139651;-66
2023/11/05 07:38:01;;;;;;;6.20;4.20;;;;;;;7.80;88.40;96870.23;218501;1259;139172;-66
2023/11/05 07:43:05;;;;;;;3.60;2.90;;;;;;;7.90;88.44;96880.34;218067;1257;140648;-66
2023/11/05 07:48:08;;;;;;;4.70;4.00;;;;;;;7.99;88.21;96885.71;217801;1258;139428;-68
2023/11/05 07:53:12;;;;;;;6.30;4.90;;;;;;;8.10;88.30;96878.17;217943;1258;139748;-67
2023/11/05 07:58:19;;;;;;;4.80;3.60;;;;;;;8.16;87.98;96878.00;218785;1260;139908;-69
2023/11/05 08:03:23;;;;;;;5.10;3.90;;;;;;;8.18;87.67;96883.16;217573;1261;139153;-67
2023/11/05 08:08:27;;;;;;;4.30;3.20;;;;;;;8.26;87.86;96873.75;217539;1261;139677;-67
2023/11/05 08:13:31;;;;;;;5.80;3.40;;;;;;;8.34;87.54;96876.02;218766;1261;139873;-67
2023/11/05 08:18:35;;;;;;;6.30;3.40;;;;;;;8.42;87.55;96885.02;218126;1260;139732;-66
2023/11/05 08:23:38;;;;;;;5.70;3.70;;;;;;;8.51;87.45;96884.91;220495;1256;140339;-67
2023/11/05 08:28:42;;;;;;;6.70;4.30;;;;;;;8.58;87.20;96890.19;219311;1257;140332;-67
2023/11/05 08:33:45;;;;;;;4.80;3.40;;;;;;;8.69;87.06;96898.83;220163;1257;140603;-67
2023/11/05 08:38:49;;;;;;;7.20;4.10;;;;;;;8.82;86.88;96893.89;219369;1257;139575;-67
2023/11/05 08:43:54;;;;;;;6.40;2.90;;;;;;;8.94;86.72;96885.95;218406;1257;139628;-67
2023/11/05 08:48:56;;;;;;;4.80;3.10;;;;;;;9.06;86.44;96882.35;218632;1257;139434;-67
2023/11/05 08:53:59;;;;;;;6.60;3.80;;;;;;;9.21;86.27;96875.04;217732;1260;139391;-67
2023/11/05 08:59:02;;;;;;;4.30;2.60;;;;;;;9.44;86.30;96880.60;218994;1256;139323;-67
2023/11/05 09:04:05;;;;;;;3.90;3.50;;;;;;;9.70;85.87;96887.18;218309;1257;139172;-68
2023/11/05 09:09:08;;;;;;;5.20;3.10;;;;;;;9.92;85.64;96891.40;217504;1258;139921;-67
2023/11/05 09:14:11;;;;;;;5.20;3.80;;;;;;;10.06;85.19;96883.23;218220;1256;139836;-67
2023/11/05 09:19:13;;;;;;;10.00;3.10;;;;;;;10.12;84.51;96887.27;217881;1260;139966;-68
2023/11/05 09:24:15;;;;;;;5.30;4.30;;;;;;;10.10;84.17;96869.00;218513;1257;139899;-67
2023/11/05 09:29:18;;;;;;;3.40;3.10;;;;;;;10.11;83.80;96856.33;217487;1260;144478;-65
2023/11/05 09:34:20;;;;;;;6.20;4.20;;;;;;;10.05;83.48;96845.35;217504;1257;139892;-66
2023/11/05 09:39:22;;;;;;;5.50;3.80;;;;;;;10.01;83.35;96836.23;217479;1258;139844;-66
2023/11/05 09:44:25;;;;;;;7.70;5.30;;;;;;;10.03;83.37;96830.02;217377;1257;140758;-66
2023/11/05 09:49:28;;;;;;;6.30;4.10;;;;;;;10.01;83.16;96819.58;217352;1257;139706;-68
2023/11/05 09:54:30;;;;;;;8.20;4.50;;;;;;;9.99;83.30;96819.52;217504;1260;139527;-67
2023/11/05 09:59:33;;;;;;;12.60;5.10;;;;;;;10.01;83.35;96819.52;217409;1257;139598;-66
2023/11/05 10:04:37;;;;;;;5.40;3.90;;;;;;;10.04;83.57;96819.88;218546;1257;139994;-68
2023/11/05 10:09:39;;;;;;;4.80;3.70;;;;;;;10.03;83.49;96831.12;218251;1260;139952;-66
2023/11/05 10:14:43;;;;;;;5.40;3.90;;;;;;;10.00;83.42;96842.02;220264;1257;139429;-67
2023/11/05 10:19:47;;;;;;;6.30;3.60;;;;;;;9.88;83.33;96843.87;217992;1257;139715;-66
2023/11/05 10:24:51;;;;;;;6.70;3.40;;;;;;;9.78;83.59;96835.33;219694;1257;139702;-68
2023/11/05 10:29:55;;;;;;;6.20;4.40;;;;;;;9.74;83.76;96823.21;220370;1255;140181;-68
2023/11/05 10:35:01;;;;;;;4.60;3.20;;;;;;;9.73;84.12;96813.71;219093;1256;139625;-67
2023/11/05 10:40:06;;;;;;;6.00;2.80;;;;;;;9.78;84.16;96803.33;219329;1257;139262;-68
2023/11/05 10:45:12;;;;;;;2.90;2.60;;;;;;;9.72;84.20;96791.11;217569;1260;139461;-67
2023/11/05 10:50:28;;;;;;;6.50;4.20;;;;;;;9.69;84.71;96801.20;218913;1257;140052;-67
2023/11/05 10:55:38;;;;;;;5.20;3.10;;;;;;;9.64;85.12;96810.30;217897;1257;139759;-66
2023/11/05 11:00:45;;;;;;;5.90;3.80;;;;;;;9.53;85.50;96815.67;217514;1257;139897;-67
2023/11/05 11:05:59;;;;;;;4.10;2.30;;;;;;;9.47;85.84;96813.06;218527;1257;140413;-70
2023/11/05 11:11:14;;;;;;;5.20;3.00;;;;;;;9.45;86.40;96813.52;218055;1256;139987;-70
2023/11/05 11:16:29;;;;;;;4.10;2.70;;;;;;;9.42;86.72;96819.18;218569;1257;141270;-69
2023/11/05 11:21:51;;;;;;;6.30;3.50;;;;;;;9.41;87.17;96818.83;218126;1257;139511;-69
2023/11/05 11:27:06;;;;;;;10.20;3.40;;;;;;;9.39;87.54;96813.81;218260;1257;140665;-68
2023/11/05 11:32:18;;;;;;;5.90;2.40;;;;;;;9.40;87.91;96809.97;217535;1257;139678;-68
2023/11/05 11:37:27;;;;;;;5.90;2.60;;;;;;;9.39;88.19;96799.20;218986;1256;139878;-69
2023/11/05 11:42:32;;;;;;;5.40;2.90;;;;;;;9.40;88.55;96795.39;217484;1257;139928;-68
2023/11/05 11:47:37;;;;;;;4.00;3.00;;;;;;;9.47;88.81;96783.45;217315;1258;141430;-69
2023/11/05 11:52:50;;;;;;;3.60;2.90;;;;;;;9.52;88.94;96779.81;217446;1257;139579;-69
2023/11/05 11:57:58;;;;;;;4.60;2.90;;;;;;;9.51;89.05;96786.21;217795;1257;139740;-68
2023/11/05 12:03:02;;;;;;;2.50;2.20;;;;;;;9.49;89.21;96778.83;217988;1258;139414;-68
2023/11/05 12:08:05;;;;;;;4.90;3.50;;;;;;;9.44;89.44;96776.76;217457;1257;139302;-69
2023/11/05 12:13:12;;;;;;;3.40;3.10;;;;;;;9.36;89.67;96773.63;217663;1257;141146;-68
2023/11/05 12:18:17;;;;;;;4.60;3.40;;;;;;;9.33;90.08;96767.89;217970;1259;139508;-68
2023/11/05 12:23:27;;;;;;;7.00;3.90;;;;;;;9.32;90.29;96768.02;217434;1256;139695;-68
2023/11/05 12:28:37;;;;;;;3.60;2.70;;;;;;;9.31;90.29;96768.73;217832;1257;140697;-68
2023/11/05 12:33:50;;;;;;;6.40;2.80;;;;;;;9.26;90.54;96769.63;217393;1258;139464;-69
2023/11/05 12:39:06;;;;;;;4.80;3.30;;;;;;;9.26;90.74;96765.65;217900;1257;141003;-68
2023/11/05 12:44:19;;;;;;;18.20;6.10;;;;;;;9.23;90.81;96758.74;217317;1258;139894;-68
2023/11/05 12:49:39;;;;;;;5.60;3.90;;;;;;;9.21;91.00;96761.82;218280;1257;139897;-68
2023/11/05 12:54:49;;;;;;;5.80;4.70;;;;;;;9.20;91.12;96760.25;217649;1257;139301;-68
2023/11/05 12:59:54;;;;;;;6.00;3.90;;;;;;;9.14;91.15;96760.88;218916;1257;139550;-68
2023/11/05 13:05:05;;;;;;;6.50;4.70;;;;;;;9.07;91.26;96753.67;217853;1257;140386;-68
2023/11/05 13:10:08;;;;;;;7.00;4.40;;;;;;;9.01;91.46;96760.64;217516;1256;140527;-68
2023/11/05 13:15:12;;;;;;;9.60;4.30;;;;;;;8.97;91.72;96767.46;219425;1257;946384;-69
2023/11/05 13:20:19;;;;;;;6.00;4.60;;;;;;;8.96;91.88;96779.27;219091;1257;140094;-68
2023/11/05 13:25:29;;;;;;;6.40;4.30;;;;;;;8.97;91.86;96776.18;218532;1259;139635;-68
2023/11/05 13:30:32;;;;;;;5.30;3.60;;;;;;;8.96;92.07;96772.11;218072;1256;140389;-68
2023/11/05 13:35:35;;;;;;;3.60;3.10;;;;;;;8.94;92.17;96772.14;218698;1256;139592;-68
2023/11/05 13:40:38;;;;;;;7.90;4.20;;;;;;;8.93;92.34;96772.42;217559;1257;139734;-68
2023/11/05 13:45:48;;;;;;;6.00;3.90;;;;;;;8.91;92.41;96771.83;217601;1259;140940;-68
2023/11/05 13:50:52;;;;;;;6.20;4.80;;;;;;;8.88;92.67;96771.41;218760;1257;139841;-68
2023/11/05 13:55:56;;;;;;;3.60;3.10;;;;;;;8.90;92.89;96771.52;217784;1256;139749;-68
2023/11/05 14:00:59;;;;;;;8.60;4.20;;;;;;;8.95;93.06;96776.38;217699;1257;139800;-68
2023/11/05 14:06:04;;;;;;;5.20;3.90;;;;;;;8.96;93.06;96779.48;218065;1256;139616;-68
2023/11/05 14:11:08;;;;;;;5.10;4.10;;;;;;;8.93;93.07;96781.19;217976;1256;140411;-68
2023/11/05 14:16:10;;;;;;;4.20;2.90;;;;;;;8.90;93.02;96778.91;218319;1256;139542;-68
2023/11/05 14:21:13;;;;;;;8.00;4.50;;;;;;;8.89;93.28;96780.80;217377;1257;139429;-68
2023/11/05 14:26:17;;;;;;;8.90;4.10;;;;;;;8.84;93.27;96771.02;217876;1257;139527;-67
2023/11/05 14:31:23;;;;;;;7.20;4.70;;;;;;;8.77;93.44;96766.75;217966;1257;139525;-68
2023/11/05 14:36:26;;;;;;;7.00;4.70;;;;;;;8.74;93.62;96772.92;218136;1257;139581;-70
2023/11/05 14:41:32;;;;;;;5.50;4.00;;;;;;;8.76;93.82;96777.34;218947;1256;140359;-69
2023/11/05 14:46:43;;;;;;;9.60;6.10;;;;;;;8.77;93.76;96779.65;217673;1259;139685;-68
2023/11/05 14:51:51;;;;;;;6.60;3.90;;;;;;;8.76;93.81;96791.95;218897;1254;139529;-69
2023/11/05 14:56:54;;;;;;;9.10;5.40;;;;;;;8.74;93.72;96793.67;217866;1259;139888;-68
2023/11/05 15:01:57;;;;;;;7.10;5.50;;;;;;;8.70;93.59;96793.54;220146;1256;139902;-69
2023/11/05 15:07:01;;;;;;;5.80;3.90;;;;;;;8.65;93.45;96798.46;219375;1256;139628;-69
2023/11/05 15:12:06;;;;;;;8.20;4.60;;;;;;;8.60;93.73;96803.92;219480;1257;140064;-68
2023/11/05 15:17:21;;;;;;;8.40;5.70;;;;;;;8.55;93.64;96815.74;220445;1256;140032;-69
2023/11/05 15:22:24;;;;;;;9.50;5.50;;;;;;;8.52;93.64;96816.08;218190;1256;139864;-68
2023/11/05 15:27:28;;;;;;;6.30;5.00;;;;;;;8.50;93.73;96817.91;220254;1257;141298;-69
2023/11/05 15:32:37;;;;;;;8.20;5.10;;;;;;;8.51;93.74;96825.39;218355;1257;140492;-68
2023/11/05 15:37:41;;;;;;;8.40;5.20;;;;;;;8.49;93.93;96830.94;218119;1259;139452;-68
2023/11/05 15:42:50;;;;;;;8.10;6.10;;;;;;;8.43;93.87;96826.89;218502;1257;139800;-68
2023/11/05 15:48:06;;;;;;;6.80;5.30;;;;;;;8.38;94.13;96838.90;217378;1258;140218;-68
2023/11/05 15:53:25;;;;;;;8.00;5.30;;;;;;;8.37;94.36;96854.27;218326;1257;139699;-68
2023/11/05 15:58:35;;;;;;;10.50;5.50;;;;;;;8.38;94.72;96861.04;217361;1258;139962;-68
2023/11/05 16:03:52;;;;;;;8.50;6.00;;;;;;;8.39;94.74;96866.09;217366;1258;139857;-69
2023/11/05 16:09:07;;;;;;;7.80;6.80;;;;;;;8.39;94.86;96863.68;217739;1259;140213;-68
2023/11/05 16:14:30;;;;;;;10.00;6.30;;;;;;;8.39;95.17;96869.52;217441;1259;139912;-68
2023/11/05 16:19:49;;;;;;;6.70;5.20;;;;;;;8.39;94.96;96867.45;217746;1257;141150;-68
2023/11/05 16:25:12;;;;;;;13.20;6.10;;;;;;;8.40;95.38;96868.50;218079;1257;140369;-68
2023/11/05 16:30:15;;;;;;;8.50;6.50;;;;;;;8.42;95.42;96870.34;218074;1257;139729;-68
2023/11/05 16:35:21;;;;;;;11.00;7.80;;;;;;;8.42;95.62;96868.95;217638;1258;139886;-69
2023/11/05 16:40:25;;;;;;;9.00;6.60;;;;;;;8.41;95.69;96870.55;218439;1256;141102;-68
2023/11/05 16:45:29;;;;;;;9.20;5.90;;;;;;;8.44;95.46;96872.90;217666;1257;140165;-68
2023/11/05 16:50:36;;;;;;;8.50;6.20;;;;;;;8.44;95.69;96865.84;217531;1259;139498;-67
2023/11/05 16:55:44;;;;;;;7.60;5.40;;;;;;;8.46;95.81;96869.11;217857;1258;139650;-68
2023/11/05 17:00:47;;;;;;;7.40;5.90;;;;;;;8.48;95.82;96872.63;218153;1257;139550;-68
2023/11/05 17:05:54;;;;;;;9.80;7.70;;;;;;;8.49;96.04;96880.59;219420;1256;139507;-69
2023/11/05 17:10:58;;;;;;;;;;;;;;;8.51;96.08;96889.80;218089;1257;139778;-68
2023/11/05 17:16:02;;;;;;;12.10;7.70;;;;;;;8.51;96.30;96889.15;220517;1257;126258;-68
2023/11/05 17:21:10;;;;;;;9.50;7.20;;;;;;;8.54;96.35;96893.19;218937;1257;140876;-68
2023/11/05 17:26:12;;;;;;;13.90;9.60;;;;;;;8.58;96.36;96891.41;218383;1259;139295;-68
2023/11/05 17:31:15;;;;;;;9.90;8.30;;;;;;;8.60;96.44;96898.01;218456;1258;140540;-68
2023/11/05 17:36:17;;;;;;;9.20;7.20;;;;;;;8.61;96.55;96898.53;218972;1257;139409;-67
2023/11/05 17:41:22;;;;;;;13.30;7.40;;;;;;;8.67;96.70;96902.27;218198;1257;141446;-68
2023/11/05 17:46:30;;;;;;;9.70;7.30;;;;;;;8.69;96.81;96905.15;217882;1256;139760;-67
2023/11/05 17:51:33;;;;;;;9.20;7.10;;;;;;;8.69;96.75;96911.20;218873;1256;140635;-68
2023/11/05 17:56:36;;;;;;;10.20;7.30;;;;;;;8.68;96.79;96908.29;217640;1257;140439;-68
2023/11/05 18:01:41;;;;;;;16.30;8.00;;;;;;;8.69;96.67;96911.95;217285;1261;140699;-68
2023/11/05 18:06:45;;;;;;;12.40;7.40;;;;;;;8.70;96.78;96917.45;217595;1260;140390;-67
2023/11/05 18:11:52;;;;;;;11.60;8.00;;;;;;;8.70;97.01;96923.24;218297;1257;140341;-68
2023/11/05 18:17:03;;;;;;;10.50;6.70;;;;;;;8.69;97.03;96936.85;217933;1257;139857;-67
2023/11/05 18:22:13;;;;;;;10.70;6.80;;;;;;;8.70;97.07;96941.19;217916;1257;139498;-67
2023/11/05 18:27:17;;;;;;;11.40;6.20;;;;;;;8.74;97.26;96945.42;217956;1257;141853;-67
2023/11/05 18:32:29;;;;;;;8.70;7.30;;;;;;;8.77;97.25;96948.35;217495;1256;140310;-68
2023/11/05 18:37:44;;;;;;;8.10;4.90;;;;;;;8.83;97.40;96957.67;218531;1256;140280;-68
2023/11/05 18:42:54;;;;;;;6.30;4.70;;;;;;;8.87;97.33;96967.79;218050;1257;141747;-68
2023/11/05 18:48:00;;;;;;;9.80;5.80;;;;;;;8.90;97.45;96975.96;217764;1257;139430;-67
2023/11/05 18:53:08;;;;;;;4.90;4.40;;;;;;;8.94;97.53;96985.84;218235;1257;140384;-68
2023/11/05 18:58:12;;;;;;;7.00;4.30;;;;;;;8.98;97.53;96995.77;217657;1257;139527;-68
2023/11/05 19:03:15;;;;;;;10.10;4.60;;;;;;;8.98;97.56;97005.50;219130;1257;139654;-67
2023/11/05 19:08:20;;;;;;;9.30;6.60;;;;;;;8.98;97.53;97007.73;217957;1257;141774;-68
2023/11/05 19:13:27;;;;;;;7.20;5.00;;;;;;;8.99;97.72;97003.73;219661;1256;140710;-68
2023/11/05 19:18:30;;;;;;;4.80;4.30;;;;;;;9.01;97.68;97007.89;220531;1256;140058;-68
2023/11/05 19:23:34;;;;;;;8.50;5.20;;;;;;;9.02;97.64;97009.47;217603;1260;143849;-68
2023/11/05 19:28:37;;;;;;;6.60;5.50;;;;;;;9.04;97.70;97016.98;219240;1257;139969;-69
2023/11/05 19:33:40;;;;;;;8.40;5.30;;;;;;;9.07;97.96;97023.95;219548;1256;140462;-67
2023/11/05 19:38:43;;;;;;;9.00;4.80;;;;;;;9.08;97.66;97030.64;219053;1259;141196;-68
2023/11/05 19:43:47;;;;;;;7.30;4.70;;;;;;;9.08;97.67;97038.83;218488;1259;139821;-68
2023/11/05 19:48:50;;;;;;;5.80;4.00;;;;;;;9.09;97.66;97045.09;217818;1258;140427;-68
2023/11/05 19:53:53;;;;;;;9.20;6.00;;;;;;;9.08;97.63;97050.20;218076;1256;140287;-67
2023/11/05 19:58:57;;;;;;;8.90;4.90;;;;;;;9.05;97.58;97055.40;217581;1257;139840;-68
2023/11/05 20:04:02;;;;;;;7.10;4.70;;;;;;;9.01;97.41;97060.08;219355;1256;139483;-68
2023/11/05 20:09:06;;;;;;;7.80;5.60;;;;;;;8.99;97.78;97073.75;218050;1257;139782;-67
2023/11/05 20:14:11;;;;;;;10.30;4.80;;;;;;;9.01;97.87;97077.19;218509;1257;139945;-68
2023/11/05 20:19:15;;;;;;;7.70;3.70;;;;;;;9.02;97.67;97085.46;217787;1257;140546;-68
2023/11/05 20:24:17;;;;;;;9.90;4.60;;;;;;;9.02;97.85;97084.99;217954;1260;140331;-67
2023/11/05 20:29:23;;;;;;;9.50;4.50;;;;;;;9.02;97.97;97088.55;218897;1258;140019;-69
2023/11/05 20:34:28;;;;;;;10.80;5.00;;;;;;;9.03;97.92;97096.61;217617;1258;139722;-68
2023/11/05 20:39:35;;;;;;;8.20;4.70;;;;;;;9.06;97.96;97100.18;218634;1256;139757;-68
2023/11/05 20:44:40;;;;;;;6.30;3.90;;;;;;;9.06;97.84;97104.53;217640;1259;141832;-68
2023/11/05 20:49:58;;;;;;;5.00;3.20;;;;;;;9.07;97.74;97113.77;217605;1257;139435;-69
2023/11/05 20:55:08;;;;;;;6.70;5.00;;;;;;;9.05;97.68;97121.56;218359;1257;139712;-69
2023/11/05 21:00:14;;;;;;;6.40;4.10;;;;;;;9.03;97.64;97133.48;217975;1256;139544;-69
2023/11/05 21:05:18;;;;;;;5.40;3.20;;;;;;;9.01;97.64;97140.90;219347;1258;139931;-69
2023/11/05 21:10:21;;;;;;;6.50;3.60;;;;;;;9.00;97.80;97147.67;219583;1258;139774;-70
2023/11/05 21:15:24;;;;;;;5.20;3.10;;;;;;;9.02;97.64;97151.58;219569;1257;140345;-68
2023/11/05 21:20:26;;;;;;;6.80;3.50;;;;;;;9.05;97.65;97157.80;219648;1260;140232;-68
2023/11/05 21:25:29;;;;;;;3.60;3.30;;;;;;;9.06;97.42;97165.50;219048;1258;140168;-71
2023/11/05 21:30:34;;;;;;;2.80;2.30;;;;;;;9.09;97.51;97171.41;220275;1257;141659;-68
2023/11/05 21:35:38;;;;;;;3.80;2.60;;;;;;;9.14;97.52;97176.25;218883;1259;139639;-68
2023/11/05 21:40:45;;;;;;;2.90;2.10;;;;;;;9.16;97.32;97176.91;219446;1256;151671;-69
2023/11/05 21:45:50;;;;;;;4.70;2.80;;;;;;;9.18;97.33;97182.40;217814;1259;140262;-71
2023/11/05 21:51:06;;;;;;;2.50;2.20;;;;;;;9.17;97.39;97197.83;217411;1259;140302;-70
2023/11/05 21:56:10;;;;;;;3.80;2.10;;;;;;;9.19;97.48;97204.70;217398;1257;140630;-70
2023/11/05 22:01:13;;;;;;;4.00;2.30;;;;;;;9.19;97.40;97215.75;217576;1260;141101;-71
2023/11/05 22:06:16;;;;;;;2.30;1.90;;;;;;;9.20;97.67;97216.70;217618;1259;139659;-69
2023/11/05 22:11:20;;;;;;;2.40;1.80;;;;;;;9.20;97.81;97219.98;217475;1261;140077;-69
2023/11/05 22:16:22;;;;;;;2.90;2.20;;;;;;;9.20;97.63;97226.52;217885;1259;139800;-69
2023/11/05 22:21:25;;;;;;;2.30;1.70;;;;;;;9.19;97.72;97231.70;218240;1259;139887;-69
2023/11/05 22:26:28;;;;;;;2.50;2.00;;;;;;;9.20;97.67;97236.73;217632;1258;139714;-68
2023/11/05 22:31:31;;;;;;;1.80;1.70;;;;;;;9.20;97.65;97240.35;218464;1259;139464;-69
2023/11/05 22:36:35;;;;;;;33.00;20.00;;;;;;;9.19;97.73;97250.73;218003;1257;139181;-68
2023/11/05 22:41:39;;;;;;;6.50;5.90;;;;;;;9.19;97.60;97253.45;217668;1256;140462;-69
2023/11/05 22:46:42;;;;;;;3.50;2.40;;;;;;;9.18;97.79;97260.41;219206;1257;140078;-70
2023/11/05 22:51:46;;;;;;;3.50;2.00;;;;;;;9.17;97.69;97269.73;218566;1258;139647;-67
2023/11/05 22:56:50;;;;;;;2.50;2.30;;;;;;;9.17;97.53;97274.64;218196;1259;139824;-69
2023/11/05 23:01:53;;;;;;;4.90;2.60;;;;;;;9.17;97.47;97282.67;218643;1257;140995;-72
2023/11/05 23:06:57;;;;;;;2.60;2.00;;;;;;;9.18;97.53;97283.66;218899;1259;139747;-68
2023/11/05 23:12:01;;;;;;;2.20;2.00;;;;;;;9.21;97.65;97288.13;219644;1259;140517;-68
2023/11/05 23:17:05;;;;;;;2.30;2.10;;;;;;;9.22;97.37;97296.61;217847;1259;139323;-69
2023/11/05 23:22:08;;;;;;;5.70;2.00;;;;;;;9.24;97.41;97301.17;219223;1257;139472;-68
2023/11/05 23:27:11;;;;;;;2.50;2.30;;;;;;;9.25;97.42;97316.58;218713;1259;139927;-69
2023/11/05 23:32:13;;;;;;;3.80;3.30;;;;;;;9.25;97.26;97320.08;218103;1257;139830;-69